Terminal Aerodrome Forecast
Issued by NWS

Home | Current Version | Previous Version | Text Only | Print | Product List | Glossary On
Versions: 1 2 3 4 5 6 7 8 9 10 11 12
000
FTUS46 KSTO 180538
TAFRBL
TAF
KRBL 180538Z 1806/1906 34005KT P6SM SCT050
     FM181400 18009KT P6SM VCSH BKN035
     FM181800 30015G25KT P6SM VCSH BKN050
     FM190300 33008KT P6SM BKN100=

USA.gov is the U.S. government's official web portal to all federal, state and local government web resources and services.